Time;durP1;ratioP1;P1;durP2;ratioP2;P2;SDS_P1;SDS_P2;PMS_P1;PMS_P2;Temp;Humidity;BMP_temperature;BMP_pressure;BME280_temperature;BME280_humidity;BME280_pressure;Samples;Min_cycle;Max_cycle;Signal;HPM_P1;HPM_P2
2023/07/06 00:00:55;;;;;;;9.33;5.00;;;15.70;99.90;;;;;;4976514;28;20304;-59
2023/07/06 00:03:25;;;;;;;7.07;4.97;;;15.70;99.90;;;;;;4977456;28;20776;-58
2023/07/06 00:05:52;;;;;;;9.27;4.70;;;15.80;99.90;;;;;;4994116;28;20221;-58
2023/07/06 00:08:20;;;;;;;9.30;5.33;;;15.60;99.90;;;;;;4993711;28;20240;-59
2023/07/06 00:10:49;;;;;;;5.73;4.67;;;15.50;99.90;;;;;;4973221;28;20219;-60
2023/07/06 00:13:17;;;;;;;8.83;5.10;;;15.50;99.90;;;;;;4975084;28;20707;-58
2023/07/06 00:15:44;;;;;;;9.50;6.03;;;15.60;99.90;;;;;;4976091;28;20210;-58
2023/07/06 00:18:12;;;;;;;8.17;5.40;;;15.40;99.90;;;;;;4975148;28;20236;-58
2023/07/06 00:20:39;;;;;;;7.50;5.30;;;15.30;99.90;;;;;;4977006;28;20263;-58
2023/07/06 00:23:08;;;;;;;8.23;6.27;;;15.50;99.90;;;;;;4973718;28;20236;-60
2023/07/06 00:25:35;;;;;;;14.40;6.00;;;15.50;99.90;;;;;;4974336;28;20295;-59
2023/07/06 00:28:03;;;;;;;7.83;6.17;;;15.40;99.90;;;;;;4968409;28;20285;-60
2023/07/06 00:30:53;;;;;;;10.50;6.13;;;15.40;99.90;;;;;;4976633;28;20200;-59
2023/07/06 00:33:18;;;;;;;7.27;5.50;;;15.40;99.90;;;;;;4978154;28;20276;-58
2023/07/06 00:35:45;;;;;;;7.90;5.33;;;15.30;99.90;;;;;;4975355;28;20309;-58
2023/07/06 00:38:15;;;;;;;9.63;6.07;;;15.50;99.90;;;;;;4974716;28;20603;-58
2023/07/06 00:40:57;;;;;;;6.63;5.43;;;15.40;99.90;;;;;;4976084;28;20220;-62
2023/07/06 00:43:54;;;;;;;7.37;5.40;;;15.30;99.90;;;;;;4981042;28;20291;-59
2023/07/06 00:46:25;;;;;;;6.90;4.87;;;15.30;99.90;;;;;;4969144;28;20681;-59
2023/07/06 00:48:54;;;;;;;7.97;4.93;;;15.30;99.90;;;;;;4977086;28;20300;-59
2023/07/06 00:51:32;;;;;;;8.53;5.03;;;15.40;99.90;;;;;;4992328;28;20211;-58
2023/07/06 00:54:07;;;;;;;8.37;4.80;;;15.40;99.90;;;;;;4974073;28;20681;-59
2023/07/06 00:56:41;;;;;;;13.37;5.13;;;15.30;99.90;;;;;;4973897;28;20214;-58
2023/07/06 00:59:11;;;;;;;6.40;4.43;;;15.30;99.90;;;;;;4988875;28;20229;-58
2023/07/06 01:01:44;;;;;;;7.80;4.33;;;15.30;99.90;;;;;;4979202;28;20831;-60
2023/07/06 01:04:16;;;;;;;9.20;4.60;;;15.20;99.90;;;;;;4976595;28;20721;-59
2023/07/06 01:06:52;;;;;;;8.33;5.53;;;15.20;99.90;;;;;;4977989;28;20202;-59
2023/07/06 01:09:19;;;;;;;8.00;4.63;;;15.20;99.90;;;;;;4977939;28;20571;-59
2023/07/06 01:11:47;;;;;;;6.40;4.53;;;15.20;99.90;;;;;;4976758;28;20199;-59
2023/07/06 01:14:15;;;;;;;9.33;4.50;;;15.20;99.90;;;;;;4973740;28;20610;-59
2023/07/06 01:16:54;;;;;;;8.17;4.10;;;15.10;99.90;;;;;;4976742;28;20208;-59
2023/07/06 01:19:58;;;;;;;6.17;4.37;;;14.90;99.90;;;;;;4978252;28;20382;-59
2023/07/06 01:22:49;;;;;;;6.57;4.40;;;14.80;99.90;;;;;;4975367;28;20213;-59
2023/07/06 01:25:45;;;;;;;6.23;4.00;;;14.80;99.90;;;;;;4989096;28;20448;-58
2023/07/06 01:28:24;;;;;;;6.93;4.00;;;14.80;99.90;;;;;;4974644;28;20346;-59
2023/07/06 01:30:57;;;;;;;7.47;4.17;;;14.80;99.90;;;;;;4977615;28;20204;-59
2023/07/06 01:33:36;;;;;;;7.77;4.70;;;14.80;99.90;;;;;;4988329;28;20230;-59
2023/07/06 01:36:19;;;;;;;8.87;4.03;;;14.80;99.90;;;;;;4978179;28;20295;-58
2023/07/06 01:38:49;;;;;;;5.57;4.23;;;14.60;99.90;;;;;;4974273;28;20208;-59
2023/07/06 01:41:28;;;;;;;10.93;4.27;;;14.70;99.90;;;;;;4976000;28;20596;-59
2023/07/06 01:43:55;;;;;;;5.83;3.60;;;14.70;99.90;;;;;;4975722;28;20267;-59
2023/07/06 01:46:22;;;;;;;6.00;3.63;;;14.70;99.90;;;;;;4977245;28;20648;-60
2023/07/06 01:48:49;;;;;;;7.97;4.10;;;14.80;99.90;;;;;;4976733;28;20215;-59
2023/07/06 01:51:22;;;;;;;6.90;4.50;;;14.80;99.90;;;;;;4977928;28;20306;-59
2023/07/06 01:53:58;;;;;;;7.27;3.60;;;14.70;99.90;;;;;;4978657;28;20219;-60
2023/07/06 01:56:46;;;;;;;8.87;3.90;;;14.60;99.90;;;;;;4979824;28;20218;-59
2023/07/06 01:59:17;;;;;;;6.37;3.90;;;14.50;99.90;;;;;;4977824;28;20264;-59
2023/07/06 02:01:49;;;;;;;7.03;3.80;;;14.50;99.90;;;;;;4981965;28;20294;-59
2023/07/06 02:04:20;;;;;;;5.47;4.10;;;14.50;99.90;;;;;;4980092;28;20305;-59
2023/07/06 02:06:53;;;;;;;4.73;3.33;;;14.40;99.90;;;;;;4982764;28;20290;-63
2023/07/06 02:09:21;;;;;;;6.10;3.47;;;14.50;99.90;;;;;;4981639;28;20197;-60
2023/07/06 02:11:47;;;;;;;8.67;3.30;;;14.60;99.90;;;;;;4981795;28;20210;-60
2023/07/06 02:14:14;;;;;;;6.83;3.70;;;14.70;99.90;;;;;;4976302;28;20205;-60
2023/07/06 02:16:41;;;;;;;5.87;3.47;;;14.50;99.90;;;;;;4979184;28;20218;-60
2023/07/06 02:19:08;;;;;;;6.87;3.63;;;14.50;99.90;;;;;;4979185;28;20208;-60
2023/07/06 02:21:36;;;;;;;8.23;3.63;;;14.60;99.90;;;;;;5013367;28;20211;-60
2023/07/06 02:24:03;;;;;;;3.87;3.20;;;14.50;99.90;;;;;;4978329;28;20209;-61
2023/07/06 02:26:30;;;;;;;7.00;3.53;;;14.50;99.90;;;;;;4980939;28;20221;-60
2023/07/06 02:28:57;;;;;;;4.70;3.53;;;14.50;99.90;;;;;;4979493;28;20211;-60
2023/07/06 02:31:24;;;;;;;6.10;3.97;;;14.20;99.90;;;;;;4978370;28;20210;-60
2023/07/06 02:33:52;;;;;;;8.87;4.57;;;14.30;99.90;;;;;;4980367;28;20232;-60
2023/07/06 02:36:19;;;;;;;7.43;3.17;;;14.30;99.90;;;;;;4980262;28;20208;-60
2023/07/06 02:38:47;;;;;;;6.63;3.90;;;14.30;99.90;;;;;;4978194;28;20205;-60
2023/07/06 02:41:14;;;;;;;7.57;3.43;;;14.30;99.90;;;;;;4980253;28;20204;-61
2023/07/06 02:43:41;;;;;;;4.33;3.23;;;14.20;99.90;;;;;;4978158;28;20242;-60
2023/07/06 02:46:08;;;;;;;6.20;3.47;;;14.20;99.90;;;;;;4976667;28;20323;-60
2023/07/06 02:48:35;;;;;;;6.10;3.80;;;14.10;99.90;;;;;;4978208;28;20205;-60
2023/07/06 02:51:02;;;;;;;5.20;2.93;;;14.00;99.90;;;;;;4977315;28;20260;-60
2023/07/06 02:53:29;;;;;;;5.73;3.83;;;14.10;99.90;;;;;;4977386;28;20211;-60
2023/07/06 02:55:56;;;;;;;7.77;3.30;;;14.10;99.90;;;;;;4978737;28;20209;-60
2023/07/06 02:58:24;;;;;;;6.53;3.77;;;14.10;99.90;;;;;;4979802;28;20620;-60
2023/07/06 03:00:50;;;;;;;7.87;4.20;;;14.20;99.90;;;;;;4980243;28;20228;-60
2023/07/06 03:03:17;;;;;;;7.70;3.47;;;14.20;99.90;;;;;;4974453;28;20229;-61
2023/07/06 03:05:46;;;;;;;6.80;3.60;;;14.10;99.90;;;;;;4978662;28;20227;-60
2023/07/06 03:08:13;;;;;;;8.50;2.83;;;14.20;99.90;;;;;;4978789;28;21032;-62
2023/07/06 03:10:42;;;;;;;7.37;3.70;;;14.20;99.90;;;;;;4979277;28;20211;-60
2023/07/06 03:13:10;;;;;;;8.67;3.40;;;14.20;99.90;;;;;;4978934;28;20213;-60
2023/07/06 03:15:40;;;;;;;5.77;3.40;;;14.10;99.90;;;;;;4980167;28;20227;-60
2023/07/06 03:18:08;;;;;;;8.37;3.20;;;14.20;99.90;;;;;;4992337;28;20603;-61
2023/07/06 03:20:37;;;;;;;4.93;3.03;;;14.20;99.90;;;;;;4979644;28;20209;-59
2023/07/06 03:23:04;;;;;;;6.70;3.10;;;14.10;99.90;;;;;;4974538;28;20230;-58
2023/07/06 03:25:33;;;;;;;7.53;3.10;;;14.20;99.90;;;;;;4989493;28;20268;-57
2023/07/06 03:28:00;;;;;;;6.80;3.07;;;14.30;99.90;;;;;;4976845;28;20204;-59
2023/07/06 03:30:29;;;;;;;7.63;3.20;;;14.10;99.90;;;;;;4978289;28;20230;-58
2023/07/06 03:32:58;;;;;;;5.07;3.13;;;14.20;99.90;;;;;;4977654;28;20200;-59
2023/07/06 03:35:28;;;;;;;6.20;3.03;;;14.20;99.90;;;;;;4976238;28;20284;-60
2023/07/06 03:37:55;;;;;;;5.73;2.80;;;14.30;99.90;;;;;;4974868;28;20564;-60
2023/07/06 03:40:22;;;;;;;6.03;3.17;;;14.20;99.90;;;;;;4975698;28;20596;-58
2023/07/06 03:42:49;;;;;;;5.87;3.30;;;14.20;99.90;;;;;;4977339;28;20204;-59
2023/07/06 03:45:17;;;;;;;4.90;2.80;;;14.20;99.90;;;;;;4977875;28;20706;-59
2023/07/06 03:47:45;;;;;;;7.43;3.40;;;14.20;99.90;;;;;;4975632;28;20238;-58
2023/07/06 03:50:15;;;;;;;7.80;3.67;;;14.10;99.90;;;;;;4977434;28;20196;-59
2023/07/06 03:52:42;;;;;;;5.67;3.20;;;14.10;99.90;;;;;;4977365;28;20271;-59
2023/07/06 03:55:14;;;;;;;6.30;2.83;;;14.10;99.90;;;;;;4975469;28;20654;-59
2023/07/06 03:57:45;;;;;;;5.87;3.40;;;14.20;99.90;;;;;;4978961;28;20211;-59
2023/07/06 04:00:29;;;;;;;6.80;3.23;;;14.10;99.90;;;;;;4988650;28;20749;-58
2023/07/06 04:02:57;;;;;;;8.03;3.47;;;14.10;99.90;;;;;;4975512;28;20221;-58
2023/07/06 04:05:32;;;;;;;7.67;3.10;;;14.00;99.90;;;;;;4975814;28;20245;-58
2023/07/06 04:08:03;;;;;;;6.27;3.10;;;14.10;99.90;;;;;;4988100;28;20615;-59
2023/07/06 04:10:32;;;;;;;9.17;3.17;;;14.10;99.90;;;;;;4988850;28;20210;-58
2023/07/06 04:12:59;;;;;;;7.73;3.80;;;14.10;99.90;;;;;;4976313;28;20204;-60
2023/07/06 04:15:26;;;;;;;8.70;3.37;;;14.20;99.90;;;;;;4978208;28;20213;-59
2023/07/06 04:17:53;;;;;;;9.47;3.40;;;14.20;99.90;;;;;;4977580;28;20212;-59
2023/07/06 04:20:27;;;;;;;5.67;3.10;;;14.20;99.90;;;;;;4992364;28;20311;-59
2023/07/06 04:22:57;;;;;;;5.53;3.17;;;14.20;99.90;;;;;;4977675;28;20217;-59
2023/07/06 04:25:31;;;;;;;4.40;2.80;;;14.30;99.90;;;;;;4977367;28;20927;-59
2023/07/06 04:28:02;;;;;;;7.83;2.90;;;14.20;99.90;;;;;;4975494;28;20243;-59
2023/07/06 04:30:35;;;;;;;10.90;3.10;;;14.10;99.90;;;;;;4978376;28;20228;-60
2023/07/06 04:33:04;;;;;;;9.13;3.40;;;14.20;99.90;;;;;;4976904;28;20335;-59
2023/07/06 04:35:31;;;;;;;7.50;3.03;;;14.10;99.90;;;;;;4979815;28;20207;-59
2023/07/06 04:37:59;;;;;;;8.67;3.70;;;14.10;99.90;;;;;;4992647;28;20216;-59
2023/07/06 04:40:27;;;;;;;7.53;3.37;;;14.00;99.90;;;;;;4977348;28;20655;-59
2023/07/06 04:42:54;;;;;;;10.63;3.50;;;14.00;99.90;;;;;;4975121;28;20214;-59
2023/07/06 04:45:27;;;;;;;9.30;3.83;;;14.20;99.90;;;;;;4990981;28;21788;-59
2023/07/06 04:47:54;;;;;;;9.20;3.80;;;14.20;99.90;;;;;;4973456;28;20207;-59
2023/07/06 04:50:22;;;;;;;10.70;4.07;;;14.10;99.90;;;;;;4975786;28;20643;-59
2023/07/06 04:52:55;;;;;;;9.70;4.63;;;14.10;99.90;;;;;;4974734;28;20279;-59
2023/07/06 04:55:25;;;;;;;8.37;3.70;;;14.30;99.90;;;;;;4975884;28;20216;-59
2023/07/06 04:57:55;;;;;;;10.07;3.70;;;14.30;99.90;;;;;;4618387;28;9999801;-59
2023/07/06 05:00:25;;;;;;;10.17;4.40;;;14.40;99.90;;;;;;4969849;28;20639;-59
2023/07/06 05:02:55;;;;;;;6.73;4.47;;;14.30;99.90;;;;;;4975100;28;20298;-59
2023/07/06 05:05:22;;;;;;;11.70;4.47;;;14.20;99.90;;;;;;4972744;28;20745;-59
2023/07/06 05:07:50;;;;;;;10.47;4.80;;;14.50;99.90;;;;;;4975607;28;20719;-59
2023/07/06 05:10:17;;;;;;;10.33;5.63;;;14.50;99.90;;;;;;4975111;28;20208;-60
2023/07/06 05:12:44;;;;;;;9.50;4.83;;;14.80;99.90;;;;;;4970663;28;20573;-59
2023/07/06 05:15:12;;;;;;;10.90;5.63;;;14.70;99.90;;;;;;4972850;28;20308;-60
2023/07/06 05:17:40;;;;;;;12.37;4.93;;;14.60;99.90;;;;;;4972929;28;20270;-58
2023/07/06 05:20:11;;;;;;;11.40;5.50;;;14.60;99.90;;;;;;4965633;28;20244;-59
2023/07/06 05:22:39;;;;;;;18.73;5.70;;;14.50;99.90;;;;;;4975095;28;20208;-59
2023/07/06 05:25:08;;;;;;;10.53;5.03;;;14.50;99.90;;;;;;4967474;28;20228;-59
2023/07/06 05:27:35;;;;;;;12.43;5.87;;;14.70;99.90;;;;;;4976729;28;20222;-59
2023/07/06 05:30:03;;;;;;;15.17;5.90;;;14.60;99.90;;;;;;4982586;28;20292;-60
2023/07/06 05:32:30;;;;;;;15.07;5.77;;;14.50;99.90;;;;;;4977755;28;20560;-59
2023/07/06 05:34:57;;;;;;;13.53;5.90;;;14.50;99.90;;;;;;5009989;28;20219;-58
2023/07/06 05:37:26;;;;;;;11.30;5.63;;;14.70;99.90;;;;;;4977756;28;20315;-58
2023/07/06 05:40:04;;;;;;;15.63;6.00;;;14.70;99.90;;;;;;4977808;28;20590;-59
2023/07/06 05:42:31;;;;;;;20.70;6.60;;;14.90;99.90;;;;;;4974451;28;20204;-59
2023/07/06 05:44:58;;;;;;;14.20;5.90;;;14.90;99.90;;;;;;4976349;28;20276;-60
2023/07/06 05:47:26;;;;;;;11.07;6.63;;;14.80;99.90;;;;;;4980043;28;20233;-59
2023/07/06 05:49:54;;;;;;;14.47;6.37;;;14.90;99.90;;;;;;4974523;28;20600;-59
2023/07/06 05:52:21;;;;;;;15.23;7.70;;;14.90;99.90;;;;;;4977246;28;20208;-59
2023/07/06 05:54:48;;;;;;;13.67;7.03;;;15.00;99.90;;;;;;4977509;28;20290;-59
2023/07/06 05:57:17;;;;;;;19.13;7.40;;;15.00;99.90;;;;;;4977711;28;20695;-59
2023/07/06 05:59:45;;;;;;;17.73;7.83;;;15.00;99.90;;;;;;4976968;28;20230;-59
2023/07/06 06:02:20;;;;;;;14.23;7.83;;;15.10;99.90;;;;;;4966303;28;20299;-59
2023/07/06 06:04:48;;;;;;;18.43;8.17;;;15.20;99.90;;;;;;4974707;28;20781;-60
2023/07/06 06:07:19;;;;;;;17.77;9.10;;;15.20;99.90;;;;;;4978403;28;20750;-59
2023/07/06 06:09:47;;;;;;;14.70;8.67;;;15.00;99.90;;;;;;4980885;28;20210;-60
2023/07/06 06:12:19;;;;;;;19.83;9.30;;;15.20;99.90;;;;;;4978065;28;20800;-59
2023/07/06 06:14:50;;;;;;;20.23;9.80;;;15.20;99.90;;;;;;4977277;28;20689;-60
2023/07/06 06:17:19;;;;;;;16.07;9.90;;;15.20;99.90;;;;;;4976557;28;20671;-59
2023/07/06 06:19:47;;;;;;;16.87;9.90;;;15.10;99.90;;;;;;4978001;28;20210;-59
2023/07/06 06:22:16;;;;;;;21.30;9.83;;;15.10;99.90;;;;;;4975692;28;20619;-59
2023/07/06 06:24:44;;;;;;;13.03;9.03;;;15.20;99.90;;;;;;4975984;28;20208;-60
2023/07/06 06:27:16;;;;;;;15.77;9.17;;;15.30;99.90;;;;;;4989145;28;20244;-59
2023/07/06 06:29:43;;;;;;;17.27;8.50;;;15.40;99.90;;;;;;4978546;28;20197;-59
2023/07/06 06:32:11;;;;;;;17.27;9.93;;;15.40;99.90;;;;;;4973843;28;20209;-59
2023/07/06 06:34:39;;;;;;;14.60;9.03;;;15.70;99.90;;;;;;4975118;28;20240;-60
2023/07/06 06:37:09;;;;;;;15.60;9.23;;;15.60;99.90;;;;;;4971990;28;20279;-59
2023/07/06 06:39:38;;;;;;;15.80;9.67;;;15.40;99.90;;;;;;4976074;28;20216;-59
2023/07/06 06:42:05;;;;;;;14.40;8.80;;;15.60;99.90;;;;;;4977096;28;20572;-60
2023/07/06 06:44:32;;;;;;;21.40;9.20;;;15.60;99.90;;;;;;4973489;28;20208;-60
2023/07/06 06:47:04;;;;;;;16.23;9.00;;;15.60;99.90;;;;;;4978870;28;20222;-59
2023/07/06 06:49:33;;;;;;;17.17;9.90;;;15.70;99.90;;;;;;4992958;28;20200;-59
2023/07/06 06:52:01;;;;;;;17.83;10.03;;;15.80;99.90;;;;;;4974225;28;20721;-60
2023/07/06 06:54:30;;;;;;;18.37;9.23;;;15.70;99.90;;;;;;4974083;28;20796;-59
2023/07/06 06:56:57;;;;;;;16.37;9.30;;;15.70;99.90;;;;;;4975028;28;20641;-60
2023/07/06 06:59:24;;;;;;;16.37;9.53;;;15.70;99.90;;;;;;4976143;28;20730;-60
2023/07/06 07:01:50;;;;;;;15.73;9.43;;;15.60;99.90;;;;;;4976659;28;20558;-59
2023/07/06 07:04:19;;;;;;;15.33;9.33;;;15.80;99.90;;;;;;4970862;28;21526;-60
2023/07/06 07:06:47;;;;;;;17.30;10.80;;;16.00;99.90;;;;;;4977252;28;20344;-60
2023/07/06 07:09:14;;;;;;;22.60;11.77;;;16.10;99.90;;;;;;4971810;28;20264;-59
2023/07/06 07:11:40;;;;;;;19.13;10.93;;;16.10;99.90;;;;;;4975303;28;20711;-59
2023/07/06 07:14:08;;;;;;;18.80;11.23;;;16.10;99.90;;;;;;4972956;28;20209;-60
2023/07/06 07:16:39;;;;;;;17.10;10.43;;;16.10;99.90;;;;;;4977569;28;20216;-60
2023/07/06 07:19:06;;;;;;;25.57;11.27;;;16.10;99.90;;;;;;4976954;28;20215;-60
2023/07/06 07:21:33;;;;;;;22.00;11.67;;;16.20;99.90;;;;;;4979407;28;20362;-60
2023/07/06 07:24:00;;;;;;;16.17;10.87;;;16.30;99.90;;;;;;4974455;28;20210;-59
2023/07/06 07:26:29;;;;;;;14.37;10.50;;;16.20;99.90;;;;;;4975297;28;20219;-60
2023/07/06 07:28:56;;;;;;;17.87;10.83;;;16.60;99.90;;;;;;4986637;28;20238;-60
2023/07/06 07:31:25;;;;;;;16.83;11.23;;;16.70;99.90;;;;;;4990210;28;20675;-60
2023/07/06 07:33:53;;;;;;;20.17;11.63;;;16.60;99.90;;;;;;4988646;28;20300;-60
2023/07/06 07:36:20;;;;;;;19.23;11.43;;;16.70;99.90;;;;;;4981784;28;20207;-60
2023/07/06 07:38:48;;;;;;;17.67;10.73;;;16.60;99.90;;;;;;4961608;28;20232;-61
2023/07/06 07:41:18;;;;;;;15.73;10.67;;;17.00;99.90;;;;;;4970400;28;20936;-60
2023/07/06 07:43:48;;;;;;;15.57;10.87;;;17.30;99.90;;;;;;4970426;28;20647;-60
2023/07/06 07:46:17;;;;;;;21.07;11.90;;;17.40;99.90;;;;;;4970829;28;20225;-60
2023/07/06 07:48:46;;;;;;;16.37;10.90;;;17.40;99.90;;;;;;4977051;28;20203;-60
2023/07/06 07:51:16;;;;;;;21.00;11.00;;;17.40;99.90;;;;;;4970330;28;20201;-60
2023/07/06 07:53:44;;;;;;;18.73;11.10;;;17.40;99.90;;;;;;4964972;28;20231;-60
2023/07/06 07:56:15;;;;;;;21.60;11.30;;;17.60;99.90;;;;;;4966622;28;20333;-60
2023/07/06 07:58:45;;;;;;;15.47;9.93;;;17.60;99.90;;;;;;4966281;28;20203;-60
2023/07/06 08:01:14;;;;;;;17.40;10.80;;;17.80;99.90;;;;;;4972412;28;20203;-60
2023/07/06 08:03:41;;;;;;;18.23;10.60;;;18.00;99.90;;;;;;4974345;28;20331;-60
2023/07/06 08:06:14;;;;;;;17.50;10.47;;;18.30;99.90;;;;;;4973846;28;20299;-60
2023/07/06 08:08:44;;;;;;;18.03;10.20;;;18.50;99.90;;;;;;4982396;28;20660;-60
2023/07/06 08:11:13;;;;;;;21.20;10.93;;;18.70;99.90;;;;;;4975796;28;20196;-60
2023/07/06 08:13:40;;;;;;;21.27;11.50;;;18.70;99.90;;;;;;4962361;28;20236;-60
2023/07/06 08:16:08;;;;;;;18.20;10.43;;;18.10;99.90;;;;;;4973629;28;20212;-60
2023/07/06 08:18:36;;;;;;;18.10;10.47;;;18.40;99.90;;;;;;4970140;28;20309;-62
2023/07/06 08:21:03;;;;;;;14.53;9.93;;;18.30;99.90;;;;;;4973022;28;20193;-60
2023/07/06 08:23:52;;;;;;;17.50;9.77;;;18.50;99.90;;;;;;4984825;28;20307;-60
2023/07/06 08:26:19;;;;;;;13.93;8.70;;;18.60;99.90;;;;;;4973362;28;20233;-60
2023/07/06 08:28:46;;;;;;;17.87;9.77;;;18.70;99.90;;;;;;4963974;28;20683;-60
2023/07/06 08:31:17;;;;;;;11.73;8.93;;;18.70;99.90;;;;;;4954902;28;20262;-60
2023/07/06 08:33:47;;;;;;;12.30;9.00;;;19.20;99.90;;;;;;4987202;28;20303;-59
2023/07/06 08:36:16;;;;;;;12.47;8.53;;;19.20;99.90;;;;;;4967850;28;20213;-60
2023/07/06 08:38:43;;;;;;;13.83;8.80;;;19.00;99.90;;;;;;4970545;28;20210;-60
2023/07/06 08:41:29;;;;;;;18.90;9.47;;;19.40;99.90;;;;;;4978129;28;20198;-60
2023/07/06 08:44:02;;;;;;;15.47;9.50;;;19.70;99.90;;;;;;5001404;28;20221;-58
2023/07/06 08:46:38;;;;;;;16.37;9.97;;;19.60;99.90;;;;;;4974470;28;20214;-58
2023/07/06 08:49:33;;;;;;;17.10;9.30;;;19.30;99.90;;;;;;4985721;28;20661;-58
2023/07/06 08:52:03;;;;;;;13.30;9.07;;;19.60;99.90;;;;;;4970392;28;20214;-58
2023/07/06 08:54:33;;;;;;;16.00;7.37;;;19.70;99.90;;;;;;4970731;28;20209;-58
2023/07/06 08:57:00;;;;;;;11.17;7.90;;;19.60;99.90;;;;;;4974096;28;20240;-58
2023/07/06 08:59:45;;;;;;;13.67;7.90;;;19.80;99.90;;;;;;4982895;28;20229;-57
2023/07/06 09:02:17;;;;;;;11.83;7.17;;;20.00;99.90;;;;;;4969192;28;20712;-58
2023/07/06 09:04:47;;;;;;;12.97;7.40;;;19.60;99.90;;;;;;4972925;28;20254;-58
2023/07/06 09:07:19;;;;;;;12.60;8.27;;;19.50;99.90;;;;;;4980476;28;20226;-58
2023/07/06 09:09:47;;;;;;;17.90;8.07;;;19.30;99.90;;;;;;4973802;28;20631;-59
2023/07/06 09:12:24;;;;;;;12.30;7.50;;;19.70;99.90;;;;;;4972265;28;20211;-59
2023/07/06 09:14:56;;;;;;;11.67;7.20;;;20.00;99.90;;;;;;4969296;28;20343;-58
2023/07/06 09:17:23;;;;;;;8.77;5.80;;;20.50;99.90;;;;;;4972982;28;20311;-58
2023/07/06 09:19:53;;;;;;;9.67;6.20;;;20.20;99.90;;;;;;4968372;28;20212;-58
2023/07/06 09:22:22;;;;;;;10.97;6.47;;;20.20;99.90;;;;;;4961800;28;20234;-59
2023/07/06 09:24:50;;;;;;;9.50;7.10;;;20.60;99.90;;;;;;4959566;28;20272;-58
2023/07/06 09:27:26;;;;;;;9.77;5.93;;;20.80;99.90;;;;;;4971751;28;20217;-58
2023/07/06 09:30:01;;;;;;;11.17;5.90;;;20.60;99.90;;;;;;4974063;28;20220;-59
2023/07/06 09:32:32;;;;;;;7.00;5.83;;;20.80;99.90;;;;;;4995841;28;20289;-58
2023/07/06 09:35:20;;;;;;;11.90;7.60;;;20.90;99.90;;;;;;4965957;28;20203;-59
2023/07/06 09:37:48;;;;;;;9.87;6.13;;;20.90;99.90;;;;;;4965984;28;20198;-58
2023/07/06 09:40:15;;;;;;;10.17;6.47;;;21.10;99.90;;;;;;4984258;28;20293;-58
2023/07/06 09:42:44;;;;;;;8.73;5.70;;;20.80;99.90;;;;;;4973046;28;20305;-58
2023/07/06 09:45:25;;;;;;;8.77;5.67;;;20.60;99.90;;;;;;4967433;28;20198;-58
2023/07/06 09:48:25;;;;;;;8.47;5.40;;;20.40;99.90;;;;;;4971223;28;20218;-58
2023/07/06 09:50:56;;;;;;;10.80;6.73;;;20.10;99.90;;;;;;4969849;28;20206;-58
2023/07/06 09:53:27;;;;;;;5.73;5.10;;;20.10;99.90;;;;;;4969119;28;20778;-58
2023/07/06 09:55:54;;;;;;;9.13;5.80;;;20.00;99.90;;;;;;4971916;28;20206;-58
2023/07/06 09:58:25;;;;;;;11.63;5.77;;;19.90;99.90;;;;;;4970859;28;20210;-58
2023/07/06 10:01:03;;;;;;;6.93;5.73;;;20.30;99.90;;;;;;4978509;28;20214;-59
2023/07/06 10:03:52;;;;;;;11.47;4.93;;;20.50;99.90;;;;;;4981315;28;20238;-58
2023/07/06 10:06:37;;;;;;;10.07;5.50;;;21.00;99.90;;;;;;4966870;28;20296;-59
2023/07/06 10:09:23;;;;;;;8.97;5.33;;;21.20;99.90;;;;;;4968516;28;20202;-59
2023/07/06 10:11:56;;;;;;;6.60;4.30;;;21.20;99.90;;;;;;4970468;28;20203;-60
2023/07/06 10:14:33;;;;;;;5.87;4.03;;;21.40;99.90;;;;;;4970661;28;20210;-59
2023/07/06 10:17:34;;;;;;;5.67;3.43;;;21.40;99.90;;;;;;4975332;28;20236;-58
2023/07/06 10:20:10;;;;;;;5.43;3.90;;;21.20;99.90;;;;;;4972958;28;20210;-59
2023/07/06 10:22:40;;;;;;;6.23;3.70;;;21.20;99.90;;;;;;4975914;28;20562;-59
2023/07/06 10:25:33;;;;;;;7.83;3.80;;;21.00;99.90;;;;;;4973244;28;20218;-59
2023/07/06 10:28:26;;;;;;;5.27;3.20;;;20.80;99.90;;;;;;4987141;28;20309;-59
2023/07/06 10:30:57;;;;;;;5.77;3.30;;;20.60;99.90;;;;;;4975926;28;20202;-59
2023/07/06 10:34:02;;;;;;;5.60;3.70;;;20.80;99.90;;;;;;4975760;28;20198;-57
2023/07/06 10:36:35;;;;;;;8.30;3.30;;;21.20;99.90;;;;;;4973464;28;20213;-58
2023/07/06 10:39:13;;;;;;;7.67;3.57;;;21.30;99.90;;;;;;4974947;28;20276;-57
2023/07/06 10:41:48;;;;;;;4.00;3.60;;;21.50;99.90;;;;;;5001592;28;20205;-59
2023/07/06 10:44:46;;;;;;;7.30;4.13;;;21.60;99.90;;;;;;4974371;28;20206;-58
2023/07/06 10:47:28;;;;;;;5.03;3.83;;;21.10;99.90;;;;;;4971726;28;20226;-58
2023/07/06 10:50:06;;;;;;;5.03;3.57;;;20.80;99.90;;;;;;4971453;28;20312;-58
2023/07/06 10:52:41;;;;;;;5.57;3.73;;;20.70;99.90;;;;;;4966755;28;20209;-57
2023/07/06 10:55:18;;;;;;;6.47;3.70;;;20.60;99.90;;;;;;4974273;28;20686;-58
2023/07/06 10:57:53;;;;;;;8.23;4.10;;;20.30;99.90;;;;;;4971014;28;20332;-60
2023/07/06 11:00:29;;;;;;;7.03;4.00;;;20.20;99.90;;;;;;4973159;28;20684;-58
2023/07/06 11:02:56;;;;;;;5.87;3.63;;;20.30;99.90;;;;;;4971157;28;20239;-58
2023/07/06 11:05:28;;;;;;;5.97;3.80;;;20.30;99.90;;;;;;4975648;28;20252;-57
2023/07/06 11:08:00;;;;;;;7.80;4.00;;;20.30;99.90;;;;;;4976931;28;20689;-57
2023/07/06 11:10:42;;;;;;;7.57;4.23;;;20.90;99.90;;;;;;4970875;28;20207;-58
2023/07/06 11:13:10;;;;;;;4.33;3.30;;;20.80;99.90;;;;;;4976942;28;20272;-58
2023/07/06 11:15:50;;;;;;;5.30;3.27;;;20.60;99.90;;;;;;4974885;28;20202;-57
2023/07/06 11:18:34;;;;;;;3.30;2.97;;;21.20;99.90;;;;;;4977040;28;20218;-58
2023/07/06 11:21:12;;;;;;;7.87;3.33;;;21.10;99.90;;;;;;4989729;28;20297;-58
2023/07/06 11:23:48;;;;;;;6.60;3.20;;;21.00;99.90;;;;;;4973053;28;20672;-58
2023/07/06 11:26:33;;;;;;;5.50;2.73;;;20.80;99.90;;;;;;4973442;28;20210;-57
2023/07/06 11:29:02;;;;;;;7.33;3.30;;;20.50;99.90;;;;;;4975527;28;20249;-57
2023/07/06 11:31:31;;;;;;;6.00;3.70;;;20.30;99.90;;;;;;4973454;28;20237;-58
2023/07/06 11:34:14;;;;;;;5.70;3.33;;;20.20;99.90;;;;;;4972801;28;20313;-58
2023/07/06 11:36:56;;;;;;;4.17;2.77;;;20.20;99.90;;;;;;4974304;28;20198;-58
2023/07/06 11:39:49;;;;;;;3.50;2.77;;;20.60;99.90;;;;;;4969877;28;20879;-58
2023/07/06 11:42:44;;;;;;;5.37;2.30;;;21.50;99.90;;;;;;4972576;28;21056;-58
2023/07/06 11:45:30;;;;;;;4.40;2.20;;;22.00;99.90;;;;;;4974070;28;20945;-57
2023/07/06 11:48:34;;;;;;;6.17;1.60;;;21.70;99.90;;;;;;4989650;28;20703;-57
2023/07/06 11:51:03;;;;;;;5.23;2.00;;;21.30;99.90;;;;;;4974418;28;20602;-58
2023/07/06 11:53:44;;;;;;;5.20;2.47;;;21.90;99.90;;;;;;4969429;28;20736;-58
2023/07/06 11:56:33;;;;;;;3.87;2.47;;;22.40;99.90;;;;;;4972074;28;20658;-57
2023/07/06 11:59:04;;;;;;;4.10;2.50;;;22.30;99.90;;;;;;4972736;28;20203;-58
2023/07/06 12:01:45;;;;;;;4.70;2.30;;;22.40;99.90;;;;;;4971357;28;20540;-59
2023/07/06 12:04:18;;;;;;;3.73;2.50;;;22.60;99.90;;;;;;4977879;28;20249;-58
2023/07/06 12:06:45;;;;;;;8.30;2.40;;;22.20;99.90;;;;;;4972483;28;20241;-58
2023/07/06 12:09:18;;;;;;;2.37;2.10;;;21.70;99.90;;;;;;4973159;28;20232;-58
2023/07/06 12:12:06;;;;;;;6.23;1.70;;;21.00;99.90;;;;;;4988055;28;21060;-57
2023/07/06 12:14:36;;;;;;;4.00;2.10;;;21.10;99.90;;;;;;4970003;28;20277;-58
2023/07/06 12:17:05;;;;;;;5.57;1.70;;;21.00;99.90;;;;;;4973012;28;20204;-59
2023/07/06 12:19:37;;;;;;;5.07;1.80;;;20.60;99.90;;;;;;4969118;28;20210;-58
2023/07/06 12:22:04;;;;;;;3.67;1.80;;;20.60;99.90;;;;;;4982804;28;20907;-58
2023/07/06 12:24:32;;;;;;;5.63;1.90;;;20.80;99.90;;;;;;4971039;28;20213;-58
2023/07/06 12:27:03;;;;;;;4.10;2.10;;;21.00;99.90;;;;;;4971944;28;21333;-58
2023/07/06 12:29:32;;;;;;;2.97;1.73;;;21.50;99.90;;;;;;4985639;28;20301;-58
2023/07/06 12:32:07;;;;;;;3.40;1.73;;;22.30;99.90;;;;;;4967856;28;20210;-58
2023/07/06 12:34:37;;;;;;;3.40;1.50;;;22.90;99.90;;;;;;4975182;28;20211;-57
2023/07/06 12:37:04;;;;;;;3.13;1.70;;;23.00;99.90;;;;;;4986739;28;20656;-58
2023/07/06 12:39:41;;;;;;;3.57;1.70;;;22.70;99.90;;;;;;4986584;28;20202;-57
2023/07/06 12:42:15;;;;;;;4.43;1.30;;;22.80;99.90;;;;;;4967998;28;20357;-59
2023/07/06 12:44:44;;;;;;;3.07;1.60;;;23.30;99.90;;;;;;4971863;28;20665;-57
2023/07/06 12:47:37;;;;;;;6.70;1.90;;;23.20;99.90;;;;;;4972903;28;20209;-59
2023/07/06 12:50:26;;;;;;;3.97;1.70;;;23.50;99.90;;;;;;4975277;28;20216;-57
2023/07/06 12:53:05;;;;;;;1.97;1.53;;;23.60;99.90;;;;;;4971403;28;20206;-60
2023/07/06 12:55:32;;;;;;;4.13;1.90;;;23.40;99.90;;;;;;4976434;28;20225;-59
2023/07/06 12:58:26;;;;;;;2.80;1.47;;;23.40;99.90;;;;;;4970672;28;20651;-59
2023/07/06 13:01:09;;;;;;;2.87;1.57;;;23.70;99.90;;;;;;4977695;28;20206;-57
2023/07/06 13:03:58;;;;;;;3.37;1.63;;;24.00;99.90;;;;;;4984294;28;20237;-58
2023/07/06 13:06:27;;;;;;;3.37;1.50;;;23.70;99.90;;;;;;4971176;28;20264;-58
2023/07/06 13:09:00;;;;;;;3.93;1.90;;;23.60;99.90;;;;;;4970335;28;20225;-58